createdAt,value
2023-04-21T00:01:13.203Z,13.30
2023-04-21T00:03:42.211Z,13.20
2023-04-21T00:06:12.658Z,13.20
2023-04-21T00:08:41.645Z,13.10
2023-04-21T00:11:10.770Z,13.10
2023-04-21T00:13:39.621Z,13.20
2023-04-21T00:16:09.266Z,13.20
2023-04-21T00:18:38.089Z,13.20
2023-04-21T00:21:07.354Z,13.10
2023-04-21T00:23:37.671Z,13.10
2023-04-21T00:26:06.710Z,13.20
2023-04-21T00:28:35.558Z,13.20
2023-04-21T00:31:06.232Z,13.20
2023-04-21T00:33:35.462Z,13.20
2023-04-21T00:36:04.331Z,13.20
2023-04-21T00:38:33.205Z,13.10
2023-04-21T00:41:03.541Z,13.10
2023-04-21T00:43:32.465Z,13.20
2023-04-21T00:46:01.414Z,13.20
2023-04-21T00:48:30.267Z,13.20
2023-04-21T00:50:59.239Z,13.20
2023-04-21T00:53:28.165Z,13.20
2023-04-21T00:55:57.125Z,13.30
2023-04-21T00:58:27.388Z,13.20
2023-04-21T01:00:56.746Z,13.20
2023-04-21T01:03:25.908Z,13.30
2023-04-21T01:05:54.993Z,13.20
2023-04-21T01:08:23.915Z,13.20
2023-04-21T01:10:52.704Z,13.10
2023-04-21T01:13:22.245Z,13.00
2023-04-21T01:15:52.546Z,12.90
2023-04-21T01:18:22.372Z,12.80
2023-04-21T01:20:51.417Z,12.90
2023-04-21T01:23:21.698Z,12.90
2023-04-21T01:25:51.721Z,12.80
2023-04-21T01:28:23.859Z,12.80
2023-04-21T01:30:53.097Z,12.80
2023-04-21T01:33:24.144Z,12.90
2023-04-21T01:35:53.422Z,13.00
2023-04-21T01:38:23.936Z,13.00
2023-04-21T01:40:55.389Z,13.00
2023-04-21T01:43:26.729Z,13.10
2023-04-21T01:45:55.775Z,13.10
2023-04-21T01:48:24.554Z,13.10
2023-04-21T01:50:53.412Z,13.10
2023-04-21T01:53:23.762Z,13.00
2023-04-21T01:55:52.659Z,12.90
2023-04-21T01:58:21.845Z,12.80
2023-04-21T02:00:50.745Z,12.70
2023-04-21T02:03:19.809Z,12.90
2023-04-21T02:05:48.850Z,12.80
2023-04-21T02:08:18.910Z,12.90
2023-04-21T02:10:49.475Z,12.70
2023-04-21T02:13:18.331Z,12.70
2023-04-21T02:15:47.274Z,12.70
2023-04-21T02:18:17.020Z,12.70
2023-04-21T02:20:46.333Z,12.70
2023-04-21T02:23:16.002Z,12.70
2023-04-21T02:25:44.824Z,12.80
2023-04-21T02:28:15.977Z,12.80
2023-04-21T02:30:44.961Z,12.80
2023-04-21T02:33:14.325Z,12.60
2023-04-21T02:35:43.242Z,12.70
2023-04-21T02:38:12.143Z,12.70
2023-04-21T02:40:41.155Z,12.60
2023-04-21T02:43:10.135Z,12.60
2023-04-21T02:45:40.798Z,12.60
2023-04-21T02:48:09.927Z,12.60
2023-04-21T02:50:40.141Z,12.70
2023-04-21T02:53:09.483Z,12.70
2023-04-21T02:55:38.260Z,12.70
2023-04-21T02:58:07.347Z,12.70
2023-04-21T03:00:36.101Z,12.70
2023-04-21T03:03:06.901Z,12.70
2023-04-21T03:05:37.214Z,12.90
2023-04-21T03:08:06.453Z,12.80
2023-04-21T03:10:38.972Z,12.80
2023-04-21T03:13:08.180Z,12.90
2023-04-21T03:15:36.911Z,12.80
2023-04-21T03:18:07.287Z,12.80
2023-04-21T03:20:36.178Z,12.80
2023-04-21T03:23:05.032Z,12.80
2023-04-21T03:25:33.794Z,12.90
2023-04-21T03:28:03.354Z,12.70
2023-04-21T03:30:32.218Z,12.70
2023-04-21T03:33:01.004Z,12.70
2023-04-21T03:35:31.285Z,12.70
2023-04-21T03:38:01.984Z,12.80
2023-04-21T03:40:32.564Z,12.70
2023-04-21T03:43:02.722Z,12.70
2023-04-21T03:45:31.578Z,12.60
2023-04-21T03:48:01.444Z,12.60
2023-04-21T03:50:34.182Z,12.60
2023-04-21T03:53:02.991Z,12.60
2023-04-21T03:55:31.716Z,12.70
2023-04-21T03:58:00.450Z,12.70
2023-04-21T04:00:29.306Z,12.70
2023-04-21T04:02:58.132Z,12.70
2023-04-21T04:05:27.121Z,12.70
2023-04-21T04:07:57.291Z,12.70
2023-04-21T04:10:26.106Z,12.80
2023-04-21T04:12:55.462Z,12.70
2023-04-21T04:15:24.224Z,12.80
2023-04-21T04:17:53.187Z,12.80
2023-04-21T04:20:22.084Z,12.70
2023-04-21T04:22:50.854Z,12.70
2023-04-21T04:25:21.598Z,12.70
2023-04-21T04:27:50.444Z,12.70
2023-04-21T04:30:19.235Z,12.70
2023-04-21T04:32:48.108Z,12.80
2023-04-21T04:35:17.031Z,12.80
2023-04-21T04:37:45.780Z,12.70
2023-04-21T04:40:14.578Z,12.80
2023-04-21T04:42:46.149Z,12.90
2023-04-21T04:45:16.833Z,12.80
2023-04-21T04:47:46.100Z,12.80
2023-04-21T04:50:14.839Z,12.90
2023-04-21T04:52:45.086Z,12.90
2023-04-21T04:55:14.004Z,13.00
2023-04-21T04:57:44.200Z,13.00
2023-04-21T05:00:14.593Z,12.90
2023-04-21T05:02:43.638Z,13.00
2023-04-21T05:05:12.598Z,12.90
2023-04-21T05:07:41.885Z,12.90
2023-04-21T05:10:10.630Z,13.00
2023-04-21T05:12:39.363Z,13.00
2023-04-21T05:15:11.123Z,13.00
2023-04-21T05:17:39.924Z,13.00
2023-04-21T05:20:09.849Z,13.10
2023-04-21T05:22:39.463Z,13.10
2023-04-21T05:25:08.879Z,13.10
2023-04-21T05:27:37.663Z,13.20
2023-04-21T05:30:08.974Z,13.30
2023-04-21T05:32:38.099Z,13.20
2023-04-21T05:35:07.581Z,13.20
2023-04-21T05:37:36.629Z,13.30
2023-04-21T05:40:05.757Z,13.40
2023-04-21T05:42:34.533Z,13.40
2023-04-21T05:45:04.263Z,13.40
2023-04-21T05:47:34.466Z,13.40
2023-04-21T05:50:03.248Z,13.40
2023-04-21T05:52:31.991Z,13.50
2023-04-21T05:55:01.003Z,13.50
2023-04-21T05:57:29.753Z,13.60
2023-04-21T05:59:58.571Z,13.70
2023-04-21T06:02:27.475Z,13.80
2023-04-21T06:04:57.828Z,13.80
2023-04-21T06:07:26.700Z,13.80
2023-04-21T06:09:55.406Z,14.20
2023-04-21T06:12:24.122Z,14.10
2023-04-21T06:14:52.894Z,14.20
2023-04-21T06:17:21.609Z,14.20
2023-04-21T06:19:53.221Z,14.30
2023-04-21T06:22:23.704Z,14.40
2023-04-21T06:24:52.849Z,14.50
2023-04-21T06:27:21.589Z,14.50
2023-04-21T06:29:50.348Z,14.60
2023-04-21T06:32:19.141Z,14.50
2023-04-21T06:34:47.829Z,14.70
2023-04-21T06:37:16.677Z,14.80
2023-04-21T06:39:46.893Z,15.00
2023-04-21T06:42:15.706Z,14.80
2023-04-21T06:44:44.962Z,14.90
2023-04-21T06:47:13.808Z,15.10
2023-04-21T06:49:42.519Z,15.20
2023-04-21T06:52:11.759Z,15.30
2023-04-21T06:54:40.557Z,15.30
2023-04-21T06:57:10.748Z,15.40
2023-04-21T06:59:39.499Z,15.50
2023-04-21T07:02:08.245Z,15.70
2023-04-21T07:04:37.146Z,15.80
2023-04-21T07:07:05.909Z,16.00
2023-04-21T07:09:34.972Z,16.10
2023-04-21T07:12:03.760Z,16.40
2023-04-21T07:14:34.008Z,16.40
2023-04-21T07:17:02.957Z,16.40
2023-04-21T07:19:31.819Z,16.30
2023-04-21T07:22:00.618Z,16.20
2023-04-21T07:24:29.351Z,16.20
2023-04-21T07:26:58.077Z,16.40
2023-04-21T07:29:26.980Z,16.60
2023-04-21T07:31:58.668Z,16.60
2023-04-21T07:34:27.501Z,16.60
2023-04-21T07:36:57.972Z,16.50
2023-04-21T07:39:26.850Z,16.70
2023-04-21T07:41:56.024Z,16.80
2023-04-21T07:44:24.816Z,16.80
2023-04-21T07:46:53.595Z,16.90
2023-04-21T07:49:23.893Z,16.90
2023-04-21T07:51:52.815Z,17.10
2023-04-21T07:54:21.643Z,17.30
2023-04-21T07:56:50.380Z,17.40
2023-04-21T07:59:19.384Z,17.30
2023-04-21T08:01:48.308Z,17.30
2023-04-21T08:04:17.537Z,17.30
2023-04-21T08:06:48.143Z,17.20
2023-04-21T08:09:17.219Z,17.20
2023-04-21T08:11:47.381Z,17.10
2023-04-21T08:14:17.311Z,17.10
2023-04-21T08:16:46.421Z,17.20
2023-04-21T08:19:15.243Z,17.10
2023-04-21T08:21:43.941Z,17.10
2023-04-21T08:24:14.281Z,17.20
2023-04-21T08:26:43.072Z,17.20
2023-04-21T08:29:13.511Z,17.20
2023-04-21T08:31:42.693Z,17.20
2023-04-21T08:34:11.474Z,17.30
2023-04-21T08:36:41.503Z,17.80
2023-04-21T08:39:10.672Z,18.10
2023-04-21T08:41:42.479Z,18.10
2023-04-21T08:44:11.714Z,18.20
2023-04-21T08:46:41.212Z,18.10
2023-04-21T08:49:11.777Z,18.10
2023-04-21T08:51:40.613Z,18.30
2023-04-21T08:54:10.204Z,18.40
2023-04-21T08:56:40.626Z,18.00
2023-04-21T08:59:09.347Z,18.30
2023-04-21T09:02:08.658Z,18.50
2023-04-21T09:04:39.908Z,18.70
2023-04-21T09:07:09.425Z,18.70
2023-04-21T09:09:54.627Z,19.10
2023-04-21T09:12:25.233Z,18.70
2023-04-21T09:14:54.055Z,18.40
2023-04-21T09:17:28.738Z,18.30
2023-04-21T09:19:57.590Z,18.50
2023-04-21T09:22:29.837Z,18.70
2023-04-21T09:25:00.941Z,18.80
2023-04-21T09:27:31.213Z,19.10
2023-04-21T09:30:06.249Z,18.70
2023-04-21T09:32:39.297Z,18.80
2023-04-21T09:35:10.928Z,19.00
2023-04-21T09:37:40.491Z,19.30
2023-04-21T09:40:10.239Z,19.30
2023-04-21T09:42:42.587Z,19.50
2023-04-21T09:47:51.747Z,19.90
2023-04-21T09:50:54.390Z,19.70
2023-04-21T09:53:16.669Z,20.20
2023-04-21T09:55:49.492Z,20.30
2023-04-21T09:58:25.275Z,20.40
2023-04-21T10:00:55.263Z,19.90
2023-04-21T10:03:28.552Z,19.60
2023-04-21T10:05:57.837Z,19.30
2023-04-21T10:08:26.793Z,19.60
2023-04-21T10:10:55.799Z,19.50
2023-04-21T10:13:26.574Z,19.50
2023-04-21T10:16:04.929Z,19.20
2023-04-21T10:18:36.133Z,19.40
2023-04-21T10:21:07.912Z,19.30
2023-04-21T10:23:42.135Z,19.10
2023-04-21T10:26:13.675Z,19.30
2023-04-21T10:28:49.059Z,19.30
2023-04-21T10:31:27.366Z,19.10
2023-04-21T10:34:15.710Z,19.20
2023-04-21T10:36:52.017Z,19.10
2023-04-21T10:39:31.631Z,19.00
2023-04-21T10:42:20.972Z,19.20
2023-04-21T10:44:55.625Z,19.20
2023-04-21T10:47:27.536Z,18.90
2023-04-21T10:49:58.350Z,18.50
2023-04-21T10:52:34.700Z,18.60
2023-04-21T10:55:10.782Z,18.70
2023-04-21T10:57:42.318Z,18.90
2023-04-21T11:00:18.489Z,19.00
2023-04-21T11:02:55.988Z,19.20
2023-04-21T11:05:34.845Z,19.20
2023-04-21T11:08:13.140Z,19.30
2023-04-21T11:10:50.986Z,19.40
2023-04-21T11:13:22.043Z,19.80
2023-04-21T11:16:03.706Z,19.80
2023-04-21T11:18:43.131Z,19.80
2023-04-21T11:21:16.082Z,20.10
2023-04-21T11:23:51.053Z,20.00
2023-04-21T11:26:21.154Z,19.80
2023-04-21T11:28:51.140Z,19.40
2023-04-21T11:31:21.437Z,19.70
2023-04-21T11:33:51.343Z,20.30
2023-04-21T11:36:23.405Z,20.10
2023-04-21T11:41:23.960Z,21.10
2023-04-21T11:43:53.297Z,21.40
2023-04-21T11:46:27.349Z,21.30
2023-04-21T11:49:04.483Z,21.70
2023-04-21T11:51:37.620Z,22.50
2023-04-21T11:54:08.019Z,22.50
2023-04-21T11:56:38.310Z,22.40
2023-04-21T11:59:11.032Z,21.50
2023-04-21T12:01:46.522Z,20.80
2023-04-21T12:04:17.543Z,20.10
2023-04-21T12:06:47.400Z,21.30
2023-04-21T12:09:19.975Z,22.70
2023-04-21T12:11:50.434Z,22.90
2023-04-21T12:14:20.765Z,22.90
2023-04-21T12:16:53.538Z,23.00
2023-04-21T12:19:26.738Z,23.60
2023-04-21T12:21:56.927Z,23.80
2023-04-21T12:24:26.172Z,23.90
2023-04-21T12:26:55.443Z,23.70
2023-04-21T12:29:24.205Z,23.80
2023-04-21T12:31:54.413Z,23.30
2023-04-21T12:34:23.277Z,23.50
2023-04-21T12:36:52.068Z,24.40
2023-04-21T12:39:22.109Z,24.00
2023-04-21T12:41:50.994Z,24.40
2023-04-21T12:44:19.764Z,24.40
2023-04-21T12:46:50.169Z,24.80
2023-04-21T12:51:51.313Z,24.60
2023-04-21T12:54:20.185Z,25.20
2023-04-21T12:56:49.007Z,25.90
2023-04-21T12:59:17.912Z,25.00
2023-04-21T13:01:46.828Z,22.90
2023-04-21T13:04:17.113Z,23.30
2023-04-21T13:06:47.595Z,23.90
2023-04-21T13:09:17.153Z,24.20
2023-04-21T13:11:46.194Z,25.30
2023-04-21T13:14:16.061Z,26.10
2023-04-21T13:16:45.179Z,26.00
2023-04-21T13:19:13.994Z,25.50
2023-04-21T13:21:42.799Z,25.10
2023-04-21T13:24:14.868Z,25.70
2023-04-21T13:26:43.747Z,26.30
2023-04-21T13:29:12.451Z,26.60
2023-04-21T13:31:41.372Z,27.10
2023-04-21T13:34:10.301Z,25.90
2023-04-21T13:36:40.528Z,25.70
2023-04-21T13:39:12.605Z,26.60
2023-04-21T13:41:41.316Z,26.80
2023-04-21T13:44:10.114Z,25.50
2023-04-21T13:46:39.814Z,23.90
2023-04-21T13:49:08.654Z,23.00
2023-04-21T13:51:37.496Z,22.40
2023-04-21T13:54:06.877Z,22.10
2023-04-21T13:56:37.718Z,21.80
2023-04-21T13:59:07.461Z,21.40
2023-04-21T14:01:36.229Z,22.00
2023-04-21T14:04:05.057Z,22.40
2023-04-21T14:06:34.364Z,21.80
2023-04-21T14:09:04.685Z,22.10
2023-04-21T14:11:33.405Z,24.40
2023-04-21T14:14:08.929Z,25.40
2023-04-21T14:16:38.448Z,26.20
2023-04-21T14:19:07.575Z,25.70
2023-04-21T14:21:36.380Z,26.80
2023-04-21T14:24:05.266Z,27.30
2023-04-21T14:26:34.101Z,27.10
2023-04-21T14:29:04.337Z,26.60
2023-04-21T14:31:33.141Z,26.60
2023-04-21T14:34:01.880Z,24.80
2023-04-21T14:36:31.216Z,23.20
2023-04-21T14:38:59.958Z,22.70
2023-04-21T14:41:28.798Z,24.40
2023-04-21T14:43:59.314Z,25.30
2023-04-21T14:46:29.700Z,26.50
2023-04-21T14:48:58.963Z,26.80
2023-04-21T14:51:27.819Z,27.50
2023-04-21T14:53:56.901Z,27.40
2023-04-21T14:56:25.729Z,27.70
2023-04-21T14:58:54.554Z,27.80
2023-04-21T15:01:25.792Z,28.00
2023-04-21T15:03:57.664Z,27.70
2023-04-21T15:06:28.157Z,27.60
2023-04-21T15:08:56.913Z,27.80
2023-04-21T15:11:25.687Z,27.40
2023-04-21T15:13:54.495Z,26.80
2023-04-21T15:16:23.380Z,26.80
2023-04-21T15:18:52.779Z,26.80
2023-04-21T15:21:23.055Z,25.50
2023-04-21T15:23:51.813Z,25.60
2023-04-21T15:26:21.920Z,25.10
2023-04-21T15:28:50.660Z,26.00
2023-04-21T15:31:19.592Z,24.20
2023-04-21T15:33:48.369Z,23.90
2023-04-21T15:36:17.130Z,23.20
2023-04-21T15:38:47.278Z,22.70
2023-04-21T15:41:17.680Z,22.40
2023-04-21T15:43:46.599Z,23.20
2023-04-21T15:46:15.456Z,25.20
2023-04-21T15:48:44.631Z,24.70
2023-04-21T15:51:14.691Z,23.10
2023-04-21T15:53:48.008Z,22.50
2023-04-21T15:56:18.264Z,21.80
2023-04-21T15:58:47.133Z,21.80
2023-04-21T16:01:16.114Z,21.70
2023-04-21T16:03:46.491Z,21.50
2023-04-21T16:06:15.348Z,21.20
2023-04-21T16:08:44.343Z,21.20
2023-04-21T16:11:13.524Z,21.30
2023-04-21T16:13:43.875Z,21.10
2023-04-21T16:16:12.702Z,20.80
2023-04-21T16:18:41.658Z,20.80
2023-04-21T16:21:10.798Z,20.70
2023-04-21T16:23:39.846Z,20.70
2023-04-21T16:26:09.293Z,20.70
2023-04-21T16:28:38.153Z,21.10
2023-04-21T16:31:08.472Z,22.60
2023-04-21T16:33:37.312Z,22.80
2023-04-21T16:36:06.761Z,23.50
2023-04-21T16:38:35.712Z,22.50
2023-04-21T16:41:04.464Z,21.40
2023-04-21T16:43:33.233Z,20.90
2023-04-21T16:46:02.226Z,20.60
2023-04-21T16:48:32.486Z,20.60
2023-04-21T16:51:01.332Z,20.60
2023-04-21T16:53:30.073Z,20.40
2023-04-21T16:55:58.909Z,20.40
2023-04-21T16:58:28.736Z,20.20
2023-04-21T17:00:57.808Z,20.20
2023-04-21T17:03:27.664Z,20.30
2023-04-21T17:05:58.003Z,20.00
2023-04-21T17:08:27.151Z,20.00
2023-04-21T17:10:56.621Z,19.70
2023-04-21T17:13:25.344Z,19.70
2023-04-21T17:15:54.618Z,19.80
2023-04-21T17:18:23.855Z,19.80
2023-04-21T17:20:53.272Z,19.70
2023-04-21T17:23:23.948Z,19.60
2023-04-21T17:25:52.773Z,19.50
2023-04-21T17:28:22.038Z,19.60
2023-04-21T17:30:53.375Z,19.60
2023-04-21T17:33:29.531Z,19.60
2023-04-21T17:36:03.359Z,19.70
2023-04-21T17:38:34.102Z,19.70
2023-04-21T17:41:03.180Z,19.60
2023-04-21T17:43:31.890Z,19.40
2023-04-21T17:46:00.802Z,19.30
2023-04-21T17:48:29.667Z,19.30
2023-04-21T17:50:58.418Z,19.70
2023-04-21T17:53:27.344Z,19.20
2023-04-21T17:55:57.598Z,19.20
2023-04-21T17:58:27.905Z,19.40
2023-04-21T18:00:57.159Z,19.10
2023-04-21T18:03:27.425Z,19.00
2023-04-21T18:05:56.954Z,18.90
2023-04-21T18:08:26.530Z,18.90
2023-04-21T18:10:57.303Z,19.00
2023-04-21T18:13:26.086Z,18.80
2023-04-21T18:15:54.846Z,18.70
2023-04-21T18:18:23.628Z,18.70
2023-04-21T18:20:52.370Z,18.50
2023-04-21T18:23:25.406Z,18.40
2023-04-21T18:25:54.222Z,18.60
2023-04-21T18:28:24.329Z,18.40
2023-04-21T18:30:53.433Z,18.30
2023-04-21T18:33:22.237Z,18.40
2023-04-21T18:35:51.201Z,18.40
2023-04-21T18:38:20.054Z,18.50
2023-04-21T18:40:48.945Z,18.60
2023-04-21T18:43:17.897Z,18.60
2023-04-21T18:45:48.312Z,18.50
2023-04-21T18:48:19.134Z,18.60
2023-04-21T18:50:47.949Z,18.60
2023-04-21T18:53:16.652Z,18.60
2023-04-21T18:55:45.771Z,18.20
2023-04-21T18:58:14.958Z,18.00
2023-04-21T19:00:43.766Z,18.00
2023-04-21T19:03:14.284Z,17.90
2023-04-21T19:05:43.661Z,17.70
2023-04-21T19:08:13.112Z,17.60
2023-04-21T19:10:42.852Z,17.70
2023-04-21T19:13:12.135Z,17.50
2023-04-21T19:15:40.989Z,17.30
2023-04-21T19:18:09.777Z,17.10
2023-04-21T19:20:40.077Z,16.90
2023-04-21T19:23:09.505Z,17.10
2023-04-21T19:25:38.686Z,16.90
2023-04-21T19:28:07.966Z,16.90
2023-04-21T19:30:36.764Z,16.90
2023-04-21T19:33:06.456Z,17.10
2023-04-21T19:35:35.497Z,17.20
2023-04-21T19:38:06.602Z,17.40
2023-04-21T19:40:35.483Z,17.50
2023-04-21T19:43:04.750Z,17.40
2023-04-21T19:45:34.435Z,17.30
2023-04-21T19:48:03.311Z,17.40
2023-04-21T19:50:32.474Z,17.40
2023-04-21T19:53:01.439Z,17.00
2023-04-21T19:55:32.897Z,17.00
2023-04-21T19:58:01.643Z,17.10
2023-04-21T20:00:30.529Z,17.10
2023-04-21T20:02:59.443Z,17.20
2023-04-21T20:05:28.307Z,17.10
2023-04-21T20:07:57.461Z,17.10
2023-04-21T20:10:26.735Z,16.90
2023-04-21T20:12:57.141Z,16.90
2023-04-21T20:15:27.053Z,16.80
2023-04-21T20:17:55.998Z,16.70
2023-04-21T20:20:24.858Z,16.80
2023-04-21T20:22:53.684Z,16.70
2023-04-21T20:27:51.536Z,16.70
2023-04-21T20:30:22.077Z,16.60
2023-04-21T20:32:50.961Z,16.50
2023-04-21T20:35:19.995Z,16.40
2023-04-21T20:37:48.795Z,16.40
2023-04-21T20:40:18.620Z,16.30
2023-04-21T20:42:48.765Z,16.40
2023-04-21T20:45:19.437Z,16.30
2023-04-21T20:47:49.724Z,16.30
2023-04-21T20:50:18.697Z,16.40
2023-04-21T20:52:47.549Z,16.50
2023-04-21T20:55:16.354Z,16.50
2023-04-21T20:57:45.176Z,16.60
2023-04-21T21:00:14.555Z,16.50
2023-04-21T21:02:44.351Z,16.60
2023-04-21T21:05:14.832Z,16.50
2023-04-21T21:07:43.637Z,16.40
2023-04-21T21:10:12.748Z,16.40
2023-04-21T21:12:41.494Z,16.50
2023-04-21T21:15:11.087Z,16.50
2023-04-21T21:17:39.927Z,16.30
2023-04-21T21:20:10.042Z,16.40
2023-04-21T21:22:40.290Z,16.30
2023-04-21T21:25:10.107Z,16.20
2023-04-21T21:27:39.599Z,16.10
2023-04-21T21:30:09.757Z,16.10
2023-04-21T21:32:38.574Z,16.10
2023-04-21T21:35:09.610Z,16.10
2023-04-21T21:37:39.913Z,15.70
2023-04-21T21:40:09.898Z,15.30
2023-04-21T21:42:39.785Z,15.40
2023-04-21T21:45:13.573Z,15.30
2023-04-21T21:47:45.050Z,15.30
2023-04-21T21:50:14.723Z,15.40
2023-04-21T21:52:44.852Z,15.30
2023-04-21T21:55:13.617Z,15.30
2023-04-21T21:57:43.064Z,15.20
2023-04-21T22:00:14.752Z,15.10
2023-04-21T22:02:44.046Z,15.10
2023-04-21T22:05:13.906Z,15.30
2023-04-21T22:07:43.247Z,15.30
2023-04-21T22:10:13.738Z,15.30
2023-04-21T22:12:42.549Z,15.20
2023-04-21T22:15:12.050Z,15.30
2023-04-21T22:17:40.955Z,15.30
2023-04-21T22:20:12.381Z,15.10
2023-04-21T22:22:41.262Z,15.10
2023-04-21T22:25:12.013Z,15.20
2023-04-21T22:27:42.225Z,15.10
2023-04-21T22:30:11.833Z,15.10
2023-04-21T22:32:40.658Z,14.80
2023-04-21T22:35:10.123Z,14.50
2023-04-21T22:37:38.853Z,14.40
2023-04-21T22:40:08.899Z,14.50
2023-04-21T22:42:37.796Z,14.30
2023-04-21T22:45:09.288Z,14.50
2023-04-21T22:47:38.418Z,14.30
2023-04-21T22:50:09.335Z,14.20
2023-04-21T22:52:38.057Z,14.00
2023-04-21T22:55:07.499Z,14.00
2023-04-21T22:57:37.608Z,14.00
2023-04-21T23:00:10.134Z,14.00
2023-04-21T23:02:39.110Z,13.90
2023-04-21T23:05:08.814Z,13.80
2023-04-21T23:07:37.814Z,13.70
2023-04-21T23:10:07.344Z,13.80
2023-04-21T23:12:36.313Z,13.90
2023-04-21T23:15:05.760Z,13.90
2023-04-21T23:17:35.935Z,13.90
2023-04-21T23:20:05.920Z,13.90
2023-04-21T23:22:34.669Z,13.90
2023-04-21T23:25:03.436Z,13.80
2023-04-21T23:27:32.227Z,13.90
2023-04-21T23:30:00.993Z,14.20
2023-04-21T23:32:29.836Z,14.00
2023-04-21T23:35:00.182Z,14.00
2023-04-21T23:37:28.930Z,14.00
2023-04-21T23:39:57.676Z,14.00
2023-04-21T23:42:26.508Z,14.00
2023-04-21T23:44:55.276Z,13.90
2023-04-21T23:47:24.012Z,13.70
2023-04-21T23:49:52.802Z,13.80
2023-04-21T23:52:22.990Z,13.90
2023-04-21T23:54:51.794Z,13.90
2023-04-21T23:57:20.598Z,13.90
2023-04-21T23:59:49.486Z,13.80
